HBDII LSGG-LFLJ
Flight info
| Callsign | HBDII |
|---|---|
| Flight time | 0h 21m |
| Altitude | 21000 |
| Route | DCT |
| Aircraft | BE35/L-SBGRW/S |
Departure
| Time | 2026-04-24 01:26 |
|---|---|
| Airport | Geneva International Airport (LSGG) |
Arrival
| Time | 2026-04-24 01:47 |
|---|---|
| Airport | Courchevel Altiport (LFLJ) |
| Time | Latitude | Longitude | Altitude | Speed | Heading |
|---|---|---|---|---|---|
| 2026-04-24 01:10 | 46.23477 | 6.09840 | 1410 ft | 0 kts | 45° |
| 2026-04-24 01:24 | 46.23489 | 6.09891 | 1412 ft | 4 kts | 130° |
| 2026-04-24 01:24 | 46.23422 | 6.09970 | 1411 ft | 30 kts | 143° |
| 2026-04-24 01:24 | 46.23356 | 6.10053 | 1413 ft | 4 kts | 135° |
| 2026-04-24 01:25 | 46.23320 | 6.10109 | 1412 ft | 23 kts | 121° |
| 2026-04-24 01:25 | 46.23411 | 6.10317 | 1409 ft | 56 kts | 44° |
| 2026-04-24 01:25 | 46.23831 | 6.10935 | 1560 ft | 102 kts | 45° |
| 2026-04-24 01:25 | 46.24386 | 6.11768 | 1791 ft | 127 kts | 46° |
| 2026-04-24 01:26 | 46.24574 | 6.12931 | 2073 ft | 130 kts | 118° |
| 2026-04-24 01:26 | 46.23819 | 6.13766 | 2283 ft | 143 kts | 154° |
| 2026-04-24 01:26 | 46.22896 | 6.14232 | 2628 ft | 140 kts | 163° |
| 2026-04-24 01:26 | 46.21985 | 6.14686 | 3110 ft | 142 kts | 148° |
| 2026-04-24 01:27 | 46.21272 | 6.15624 | 3610 ft | 138 kts | 137° |
| 2026-04-24 01:27 | 46.20574 | 6.16529 | 4142 ft | 131 kts | 133° |
| 2026-04-24 01:27 | 46.19904 | 6.17418 | 4715 ft | 129 kts | 136° |
| 2026-04-24 01:27 | 46.19220 | 6.18298 | 5125 ft | 134 kts | 136° |
| 2026-04-24 01:28 | 46.18551 | 6.19204 | 5589 ft | 130 kts | 131° |
| 2026-04-24 01:28 | 46.17964 | 6.20324 | 5805 ft | 146 kts | 121° |
| 2026-04-24 01:28 | 46.17455 | 6.21602 | 6122 ft | 150 kts | 120° |
| 2026-04-24 01:28 | 46.16828 | 6.22840 | 6302 ft | 159 kts | 131° |
| 2026-04-24 01:29 | 46.15923 | 6.23848 | 6288 ft | 171 kts | 150° |
| 2026-04-24 01:29 | 46.14853 | 6.24616 | 6384 ft | 174 kts | 154° |
| 2026-04-24 01:29 | 46.13770 | 6.25380 | 6552 ft | 172 kts | 155° |
| 2026-04-24 01:29 | 46.12697 | 6.26117 | 6750 ft | 169 kts | 154° |
| 2026-04-24 01:30 | 46.11632 | 6.26881 | 6837 ft | 172 kts | 153° |
| 2026-04-24 01:30 | 46.10555 | 6.27662 | 6832 ft | 178 kts | 153° |
| 2026-04-24 01:30 | 46.09430 | 6.28474 | 6824 ft | 183 kts | 153° |
| 2026-04-24 01:30 | 46.08286 | 6.29298 | 6826 ft | 184 kts | 153° |
| 2026-04-24 01:31 | 46.07138 | 6.30128 | 6822 ft | 184 kts | 153° |
| 2026-04-24 01:31 | 46.05995 | 6.30954 | 6825 ft | 184 kts | 154° |
| 2026-04-24 01:31 | 46.04848 | 6.31778 | 6822 ft | 184 kts | 153° |
| 2026-04-24 01:31 | 46.03707 | 6.32604 | 6816 ft | 183 kts | 153° |
| 2026-04-24 01:32 | 46.02572 | 6.33426 | 6815 ft | 182 kts | 153° |
| 2026-04-24 01:32 | 46.01446 | 6.34244 | 6806 ft | 181 kts | 153° |
| 2026-04-24 01:32 | 46.00323 | 6.35062 | 6808 ft | 181 kts | 154° |
| 2026-04-24 01:32 | 45.99117 | 6.35534 | 6805 ft | 180 kts | 171° |
| 2026-04-24 01:33 | 45.97871 | 6.35807 | 6803 ft | 182 kts | 171° |
| 2026-04-24 01:33 | 45.96621 | 6.36089 | 6835 ft | 181 kts | 171° |
| 2026-04-24 01:33 | 45.95383 | 6.36367 | 6853 ft | 180 kts | 171° |
| 2026-04-24 01:33 | 45.94149 | 6.36646 | 6877 ft | 179 kts | 171° |
| 2026-04-24 01:34 | 45.92921 | 6.36922 | 6904 ft | 179 kts | 171° |
| 2026-04-24 01:34 | 45.91688 | 6.37198 | 6925 ft | 179 kts | 171° |
| 2026-04-24 01:34 | 45.90454 | 6.37471 | 6947 ft | 179 kts | 171° |
| 2026-04-24 01:34 | 45.89228 | 6.37742 | 6970 ft | 178 kts | 171° |
| 2026-04-24 01:35 | 45.88001 | 6.38013 | 6993 ft | 179 kts | 171° |
| 2026-04-24 01:35 | 45.86772 | 6.38286 | 7020 ft | 179 kts | 171° |
| 2026-04-24 01:35 | 45.85543 | 6.38558 | 7041 ft | 178 kts | 171° |
| 2026-04-24 01:35 | 45.84333 | 6.38825 | 7064 ft | 178 kts | 172° |
| 2026-04-24 01:36 | 45.83111 | 6.39096 | 7085 ft | 178 kts | 171° |
| 2026-04-24 01:36 | 45.81887 | 6.39372 | 7107 ft | 178 kts | 171° |
| 2026-04-24 01:36 | 45.80664 | 6.39646 | 7130 ft | 179 kts | 171° |
| 2026-04-24 01:36 | 45.79436 | 6.39924 | 7154 ft | 179 kts | 171° |
| 2026-04-24 01:37 | 45.78209 | 6.40203 | 7184 ft | 179 kts | 171° |
| 2026-04-24 01:37 | 45.76986 | 6.40478 | 7187 ft | 179 kts | 171° |
| 2026-04-24 01:37 | 45.75749 | 6.40753 | 7186 ft | 180 kts | 171° |
| 2026-04-24 01:37 | 45.74512 | 6.41032 | 7182 ft | 180 kts | 171° |
| 2026-04-24 01:38 | 45.73275 | 6.41311 | 7181 ft | 180 kts | 171° |
| 2026-04-24 01:38 | 45.72039 | 6.41587 | 7176 ft | 180 kts | 171° |
| 2026-04-24 01:38 | 45.70801 | 6.41861 | 7178 ft | 180 kts | 171° |
| 2026-04-24 01:38 | 45.69566 | 6.42135 | 7177 ft | 180 kts | 171° |
| 2026-04-24 01:39 | 45.68329 | 6.42406 | 7177 ft | 180 kts | 171° |
| 2026-04-24 01:39 | 45.67094 | 6.42676 | 7178 ft | 180 kts | 171° |
| 2026-04-24 01:39 | 45.65858 | 6.42949 | 7172 ft | 180 kts | 171° |
| 2026-04-24 01:39 | 45.64621 | 6.43224 | 7166 ft | 180 kts | 171° |
| 2026-04-24 01:40 | 45.63384 | 6.43502 | 7169 ft | 180 kts | 171° |
| 2026-04-24 01:40 | 45.62148 | 6.43777 | 7171 ft | 180 kts | 171° |
| 2026-04-24 01:40 | 45.60930 | 6.44169 | 7165 ft | 179 kts | 162° |
| 2026-04-24 01:40 | 45.59749 | 6.44741 | 7169 ft | 180 kts | 161° |
| 2026-04-24 01:41 | 45.58563 | 6.45315 | 7167 ft | 180 kts | 162° |
| 2026-04-24 01:41 | 45.57377 | 6.45889 | 7164 ft | 180 kts | 161° |
| 2026-04-24 01:41 | 45.56193 | 6.46466 | 7167 ft | 180 kts | 161° |
| 2026-04-24 01:41 | 45.55009 | 6.47040 | 7166 ft | 180 kts | 161° |
| 2026-04-24 01:42 | 45.53863 | 6.47733 | 7165 ft | 179 kts | 151° |
| 2026-04-24 01:42 | 45.52792 | 6.48638 | 7163 ft | 180 kts | 148° |
| 2026-04-24 01:42 | 45.51739 | 6.49602 | 7156 ft | 180 kts | 147° |
| 2026-04-24 01:42 | 45.50689 | 6.50566 | 7161 ft | 180 kts | 147° |
| 2026-04-24 01:43 | 45.49652 | 6.51518 | 7169 ft | 180 kts | 147° |
| 2026-04-24 01:43 | 45.48634 | 6.52556 | 7164 ft | 180 kts | 140° |
| 2026-04-24 01:43 | 45.47714 | 6.53774 | 7163 ft | 180 kts | 136° |
| 2026-04-24 01:43 | 45.46845 | 6.55055 | 7168 ft | 181 kts | 130° |
| 2026-04-24 01:44 | 45.46042 | 6.56451 | 7159 ft | 182 kts | 129° |
| 2026-04-24 01:44 | 45.45377 | 6.57959 | 7160 ft | 176 kts | 117° |
| 2026-04-24 01:44 | 45.44955 | 6.59555 | 7165 ft | 171 kts | 106° |
| 2026-04-24 01:44 | 45.44704 | 6.61193 | 7164 ft | 167 kts | 101° |
| 2026-04-24 01:45 | 45.44479 | 6.62817 | 7156 ft | 166 kts | 102° |
| 2026-04-24 01:45 | 45.44266 | 6.64364 | 7157 ft | 154 kts | 101° |
| 2026-04-24 01:45 | 45.43784 | 6.65645 | 7160 ft | 146 kts | 137° |
| 2026-04-24 01:45 | 45.43025 | 6.66557 | 7156 ft | 140 kts | 148° |
| 2026-04-24 01:46 | 45.42104 | 6.66666 | 7159 ft | 136 kts | 204° |
| 2026-04-24 01:46 | 45.41364 | 6.65884 | 7083 ft | 131 kts | 228° |
| 2026-04-24 01:46 | 45.40854 | 6.65045 | 6973 ft | 97 kts | 224° |
| 2026-04-24 01:46 | 45.40393 | 6.64395 | 6690 ft | 92 kts | 225° |
| 2026-04-24 01:47 | 45.39952 | 6.63767 | 6424 ft | 85 kts | 225° |
| 2026-04-24 01:47 | 45.39673 | 6.63390 | 6593 ft | 27 kts | 220° |
| 2026-04-24 01:47 | 45.39599 | 6.63357 | 6597 ft | 0 kts | 219° |
| 2026-04-24 01:51 | 45.39626 | 6.63315 | 6601 ft | 10 kts | 14° |
| 2026-04-24 01:51 | 45.39637 | 6.63323 | 6600 ft | 10 kts | 29° |
| 2026-04-24 01:52 | 45.39781 | 6.63539 | 6494 ft | 46 kts | 40° |
| 2026-04-24 01:52 | 45.39925 | 6.63712 | 6386 ft | 7 kts | 86° |
| 2026-04-24 01:52 | 45.39887 | 6.63701 | 6403 ft | 26 kts | 216° |
| 2026-04-24 01:52 | 45.39663 | 6.63368 | 6643 ft | 53 kts | 221° |
| 2026-04-24 01:53 | 45.39291 | 6.63166 | 6909 ft | 60 kts | 161° |
| 2026-04-24 01:53 | 45.39336 | 6.63708 | 6986 ft | 95 kts | 22° |
| 2026-04-24 01:53 | 45.40141 | 6.63790 | 6530 ft | 108 kts | 9° |
| 2026-04-24 01:53 | 45.40906 | 6.64108 | 6559 ft | 143 kts | 57° |
| 2026-04-24 01:54 | 45.40510 | 6.64977 | 6790 ft | 131 kts | 180° |
| 2026-04-24 01:54 | 45.39861 | 6.63978 | 6760 ft | 158 kts | 247° |
| 2026-04-24 01:54 | 45.39455 | 6.63053 | 6795 ft | 4 kts | 257° |
| 2026-04-24 01:54 | 45.39600 | 6.63405 | 6596 ft | 2 kts | 322° |